createdAt,value
2018-03-18T00:00:21.149Z,0.00
2018-03-18T00:02:48.749Z,0.00
2018-03-18T00:05:16.317Z,0.20
2018-03-18T00:07:43.910Z,0.20
2018-03-18T00:10:11.477Z,0.20
2018-03-18T00:12:39.079Z,0.10
2018-03-18T00:15:06.661Z,0.10
2018-03-18T00:17:34.270Z,0.20
2018-03-18T00:20:01.855Z,0.10
2018-03-18T00:22:30.217Z,0.00
2018-03-18T00:24:57.797Z,0.00
2018-03-18T00:27:26.137Z,0.10
2018-03-18T00:29:53.737Z,0.10
2018-03-18T00:32:21.315Z,0.10
2018-03-18T00:34:48.938Z,0.00
2018-03-18T00:37:17.285Z,0.10
2018-03-18T00:39:44.876Z,0.00
2018-03-18T00:42:13.222Z,0.10
2018-03-18T00:44:40.823Z,0.10
2018-03-18T00:47:09.201Z,0.20
2018-03-18T00:49:36.805Z,0.20
2018-03-18T00:52:04.382Z,0.10
2018-03-18T00:54:31.976Z,0.00
2018-03-18T00:57:00.312Z,0.00
2018-03-18T00:59:27.912Z,0.00
2018-03-18T01:01:56.251Z,0.10
2018-03-18T01:04:23.894Z,0.10
2018-03-18T01:06:51.445Z,0.00
2018-03-18T01:09:19.037Z,0.20
2018-03-18T01:11:46.622Z,0.20
2018-03-18T01:14:14.977Z,0.10
2018-03-18T01:16:42.562Z,0.10
2018-03-18T01:19:10.938Z,0.10
2018-03-18T01:21:38.517Z,0.10
2018-03-18T01:24:06.123Z,0.20
2018-03-18T01:26:33.702Z,0.20
2018-03-18T01:29:01.303Z,0.00
2018-03-18T01:31:28.893Z,0.00
2018-03-18T01:33:56.461Z,0.00
2018-03-18T01:36:24.059Z,0.10
2018-03-18T01:38:51.637Z,0.20
2018-03-18T01:41:19.232Z,0.20
2018-03-18T01:43:46.807Z,0.00
2018-03-18T01:46:14.393Z,0.00
2018-03-18T01:48:42.733Z,0.20
2018-03-18T01:51:10.333Z,0.10
2018-03-18T01:53:37.905Z,0.10
2018-03-18T01:56:05.488Z,0.10
2018-03-18T01:58:33.062Z,0.00
2018-03-18T02:01:00.657Z,0.10
2018-03-18T02:03:28.993Z,0.20
2018-03-18T02:05:56.588Z,0.20
2018-03-18T02:08:24.930Z,0.10
2018-03-18T02:10:52.530Z,0.10
2018-03-18T02:13:20.101Z,0.20
2018-03-18T02:15:47.707Z,0.30
2018-03-18T02:18:15.277Z,0.30
2018-03-18T02:20:42.869Z,0.40
2018-03-18T02:23:10.442Z,0.30
2018-03-18T02:25:38.043Z,0.30
2018-03-18T02:28:05.630Z,0.40
2018-03-18T02:30:33.239Z,0.20
2018-03-18T02:33:00.810Z,0.20
2018-03-18T02:35:28.406Z,0.30
2018-03-18T02:37:55.978Z,0.20
2018-03-18T02:40:23.577Z,0.10
2018-03-18T02:42:51.155Z,0.10
2018-03-18T02:45:18.769Z,0.00
2018-03-18T02:47:47.108Z,0.10
2018-03-18T02:50:14.674Z,0.10
2018-03-18T02:52:42.278Z,0.00
2018-03-18T02:55:09.858Z,0.10
2018-03-18T02:57:37.461Z,0.00
2018-03-18T03:00:05.046Z,0.00
2018-03-18T03:02:32.639Z,0.10
2018-03-18T03:05:00.214Z,0.10
2018-03-18T03:07:27.820Z,0.10
2018-03-18T03:09:56.157Z,0.20
2018-03-18T03:12:23.745Z,0.10
2018-03-18T03:14:51.318Z,0.10
2018-03-18T03:17:18.914Z,0.20
2018-03-18T03:19:46.490Z,0.10
2018-03-18T03:22:14.088Z,0.20
2018-03-18T03:24:42.427Z,0.20
2018-03-18T03:27:10.019Z,0.20
2018-03-18T03:29:37.598Z,0.20
2018-03-18T03:32:05.209Z,0.10
2018-03-18T03:34:32.786Z,0.00
2018-03-18T03:37:00.366Z,0.00
2018-03-18T03:39:28.720Z,0.00
2018-03-18T03:41:56.297Z,0.00
2018-03-18T03:44:23.890Z,0.00
2018-03-18T03:46:51.457Z,0.10
2018-03-18T03:49:19.048Z,0.00
2018-03-18T03:51:46.630Z,0.00
2018-03-18T03:54:14.999Z,0.00
2018-03-18T03:56:43.366Z,-0.10
2018-03-18T03:59:10.970Z,-0.10
2018-03-18T04:01:38.537Z,0.20
2018-03-18T04:04:06.129Z,0.00
2018-03-18T04:06:33.715Z,-0.10
2018-03-18T04:09:01.322Z,-0.10
2018-03-18T04:11:28.894Z,0.00
2018-03-18T04:13:56.489Z,-0.20
2018-03-18T04:16:24.065Z,-0.10
2018-03-18T04:18:51.668Z,-0.10
2018-03-18T04:21:20.009Z,-0.20
2018-03-18T04:23:47.646Z,-0.20
2018-03-18T04:26:15.218Z,-0.10
2018-03-18T04:28:42.838Z,-0.10
2018-03-18T04:31:10.418Z,0.10
2018-03-18T04:33:38.013Z,-0.10
2018-03-18T04:36:05.592Z,0.00
2018-03-18T04:38:33.166Z,0.10
2018-03-18T04:41:00.780Z,0.00
2018-03-18T04:43:28.355Z,0.10
2018-03-18T04:45:55.957Z,-0.10
2018-03-18T04:48:23.529Z,-0.20
2018-03-18T04:50:51.124Z,-0.10
2018-03-18T04:53:19.532Z,-0.20
2018-03-18T04:55:47.133Z,-0.20
2018-03-18T04:58:14.703Z,0.00
2018-03-18T05:00:43.069Z,-0.10
2018-03-18T05:03:10.641Z,-0.10
2018-03-18T05:05:39.010Z,0.00
2018-03-18T05:08:06.581Z,-0.10
2018-03-18T05:10:34.946Z,-0.10
2018-03-18T05:13:02.532Z,-0.10
2018-03-18T05:15:30.909Z,-0.10
2018-03-18T05:17:59.255Z,-0.10
2018-03-18T05:20:26.854Z,-0.10
2018-03-18T05:22:54.434Z,-0.20
2018-03-18T05:25:22.806Z,-0.20
2018-03-18T05:27:50.402Z,-0.20
2018-03-18T05:30:18.004Z,0.00
2018-03-18T05:32:45.589Z,-0.10
2018-03-18T05:35:13.191Z,-0.10
2018-03-18T05:37:40.771Z,0.00
2018-03-18T05:40:09.169Z,-0.10
2018-03-18T05:42:36.749Z,-0.10
2018-03-18T05:45:04.401Z,-0.10
2018-03-18T05:47:32.005Z,0.00
2018-03-18T05:49:59.581Z,0.10
2018-03-18T05:52:27.951Z,0.10
2018-03-18T05:54:56.298Z,0.00
2018-03-18T05:57:23.898Z,0.00
2018-03-18T05:59:51.469Z,-0.10
2018-03-18T06:02:19.062Z,0.00
2018-03-18T06:04:46.633Z,0.00
2018-03-18T06:07:14.233Z,0.10
2018-03-18T06:09:42.564Z,0.00
2018-03-18T06:12:10.162Z,0.00
2018-03-18T06:14:38.506Z,0.10
2018-03-18T06:17:06.102Z,0.10
2018-03-18T06:19:33.669Z,0.00
2018-03-18T06:22:02.020Z,0.10
2018-03-18T06:24:29.589Z,0.10
2018-03-18T06:26:57.185Z,0.10
2018-03-18T06:29:24.754Z,0.10
2018-03-18T06:31:52.341Z,0.10
2018-03-18T06:34:19.912Z,0.20
2018-03-18T06:36:47.510Z,0.20
2018-03-18T06:39:15.081Z,0.10
2018-03-18T06:41:42.678Z,0.10
2018-03-18T06:44:10.250Z,0.20
2018-03-18T06:46:37.823Z,0.40
2018-03-18T06:49:05.419Z,0.20
2018-03-18T06:51:32.992Z,0.30
2018-03-18T06:54:00.597Z,0.40
2018-03-18T06:56:28.175Z,0.40
2018-03-18T06:58:56.533Z,0.20
2018-03-18T07:01:24.114Z,0.10
2018-03-18T07:03:52.482Z,0.30
2018-03-18T07:06:20.821Z,0.30
2018-03-18T07:08:48.425Z,0.30
2018-03-18T07:11:15.991Z,0.50
2018-03-18T07:13:45.246Z,0.60
2018-03-18T07:16:12.830Z,0.60
2018-03-18T07:18:41.202Z,0.50
2018-03-18T07:21:08.779Z,0.60
2018-03-18T07:23:36.369Z,0.50
2018-03-18T07:26:04.707Z,0.50
2018-03-18T07:28:32.301Z,0.50
2018-03-18T07:30:59.873Z,0.50
2018-03-18T07:33:27.461Z,0.60
2018-03-18T07:35:55.029Z,0.60
2018-03-18T07:38:22.617Z,0.40
2018-03-18T07:40:50.190Z,0.50
2018-03-18T07:43:17.782Z,0.50
2018-03-18T07:45:45.358Z,0.60
2018-03-18T07:48:12.949Z,0.50
2018-03-18T07:50:40.517Z,0.60
2018-03-18T07:53:08.115Z,0.70
2018-03-18T07:55:35.698Z,0.70
2018-03-18T07:58:03.289Z,0.80
2018-03-18T08:00:31.659Z,1.00
2018-03-18T08:03:00.012Z,1.00
2018-03-18T08:05:27.609Z,1.00
2018-03-18T08:07:55.189Z,1.10
2018-03-18T08:10:22.783Z,1.20
2018-03-18T08:12:50.366Z,1.30
2018-03-18T08:15:17.970Z,1.30
2018-03-18T08:17:45.551Z,1.30
2018-03-18T08:20:13.141Z,1.10
2018-03-18T08:22:41.490Z,1.30
2018-03-18T08:25:09.081Z,1.30
2018-03-18T08:27:37.413Z,1.30
2018-03-18T08:30:04.999Z,1.30
2018-03-18T08:32:32.589Z,1.00
2018-03-18T08:35:00.954Z,1.20
2018-03-18T08:37:29.295Z,1.30
2018-03-18T08:39:56.897Z,1.30
2018-03-18T08:42:29.178Z,1.50
2018-03-18T08:44:57.529Z,1.50
2018-03-18T08:47:25.144Z,1.50
2018-03-18T08:49:52.718Z,1.50
2018-03-18T08:52:20.302Z,1.50
2018-03-18T08:54:47.907Z,1.50
2018-03-18T08:57:15.480Z,1.50
2018-03-18T08:59:43.085Z,1.60
2018-03-18T09:02:11.223Z,1.60
2018-03-18T09:04:38.825Z,1.60
2018-03-18T09:07:07.159Z,1.70
2018-03-18T09:09:34.727Z,1.70
2018-03-18T09:12:02.327Z,1.70
2018-03-18T09:14:30.676Z,1.80
2018-03-18T09:16:58.274Z,1.80
2018-03-18T09:19:25.849Z,1.80
2018-03-18T09:21:53.450Z,1.90
2018-03-18T09:24:21.039Z,2.00
2018-03-18T09:26:49.398Z,1.80
2018-03-18T09:29:16.977Z,1.80
2018-03-18T09:31:45.338Z,1.80
2018-03-18T09:34:12.916Z,1.80
2018-03-18T09:36:41.286Z,2.00
2018-03-18T09:39:09.822Z,1.90
2018-03-18T09:41:37.471Z,1.90
2018-03-18T09:44:05.046Z,1.90
2018-03-18T09:46:32.642Z,2.10
2018-03-18T09:49:00.210Z,2.00
2018-03-18T09:51:27.820Z,1.90
2018-03-18T09:53:55.458Z,2.00
2018-03-18T09:56:23.057Z,2.00
2018-03-18T09:58:50.632Z,2.10
2018-03-18T10:01:18.207Z,2.30
2018-03-18T10:03:46.572Z,2.30
2018-03-18T10:06:14.142Z,2.20
2018-03-18T10:08:41.729Z,2.30
2018-03-18T10:11:09.300Z,2.40
2018-03-18T10:13:36.889Z,2.50
2018-03-18T10:16:05.229Z,2.50
2018-03-18T10:18:32.826Z,2.50
2018-03-18T10:21:00.390Z,2.50
2018-03-18T10:23:28.028Z,2.60
2018-03-18T10:25:55.605Z,2.60
2018-03-18T10:28:23.189Z,2.50
2018-03-18T10:30:50.765Z,2.70
2018-03-18T10:33:18.368Z,2.70
2018-03-18T10:35:45.947Z,2.80
2018-03-18T10:38:13.541Z,2.70
2018-03-18T10:40:41.105Z,2.80
2018-03-18T10:43:08.709Z,2.70
2018-03-18T10:45:36.292Z,2.70
2018-03-18T10:48:03.884Z,2.70
2018-03-18T10:50:31.449Z,2.80
2018-03-18T10:52:59.048Z,2.90
2018-03-18T10:55:26.609Z,2.80
2018-03-18T10:57:54.221Z,2.90
2018-03-18T11:00:21.823Z,2.90
2018-03-18T11:02:49.450Z,3.00
2018-03-18T11:05:17.113Z,3.00
2018-03-18T11:07:44.685Z,2.90
2018-03-18T11:10:12.269Z,2.90
2018-03-18T11:12:39.862Z,3.00
2018-03-18T11:15:07.513Z,2.90
2018-03-18T11:17:35.049Z,3.00
2018-03-18T11:20:02.642Z,3.10
2018-03-18T11:22:31.253Z,3.00
2018-03-18T11:24:58.922Z,3.00
2018-03-18T11:27:26.538Z,3.00
2018-03-18T11:29:55.624Z,3.10
2018-03-18T11:32:23.258Z,3.10
2018-03-18T11:34:50.852Z,3.10
2018-03-18T11:37:18.797Z,3.20
2018-03-18T11:39:46.458Z,3.20
2018-03-18T11:42:14.029Z,3.40
2018-03-18T11:44:41.623Z,3.30
2018-03-18T11:47:09.191Z,3.30
2018-03-18T11:49:38.114Z,3.10
2018-03-18T11:52:05.681Z,3.10
2018-03-18T11:54:33.275Z,3.30
2018-03-18T11:57:00.919Z,3.10
2018-03-18T11:59:29.294Z,3.00
2018-03-18T12:01:56.870Z,3.00
2018-03-18T12:04:25.960Z,3.10
2018-03-18T12:06:53.774Z,3.10
2018-03-18T12:09:21.345Z,3.00
2018-03-18T12:11:48.933Z,3.10
2018-03-18T12:14:16.507Z,3.10
2018-03-18T12:16:44.862Z,2.90
2018-03-18T12:19:12.432Z,2.90
2018-03-18T12:21:40.100Z,2.90
2018-03-18T12:24:08.851Z,2.90
2018-03-18T12:26:36.500Z,3.30
2018-03-18T12:29:04.108Z,3.30
2018-03-18T12:31:31.702Z,3.20
2018-03-18T12:33:59.283Z,3.00
2018-03-18T12:36:26.961Z,3.00
2018-03-18T12:38:54.537Z,3.00
2018-03-18T12:41:22.150Z,3.00
2018-03-18T12:43:49.730Z,3.00
2018-03-18T12:46:17.324Z,3.10
2018-03-18T12:48:44.898Z,3.30
2018-03-18T12:51:13.258Z,3.30
2018-03-18T12:53:40.821Z,3.30
2018-03-18T12:56:09.329Z,3.40
2018-03-18T12:58:37.099Z,3.30
2018-03-18T13:01:04.703Z,3.30
2018-03-18T13:03:32.305Z,3.20
2018-03-18T13:05:59.931Z,3.30
2018-03-18T13:08:27.502Z,3.30
2018-03-18T13:10:55.106Z,3.20
2018-03-18T13:13:22.674Z,3.30
2018-03-18T13:15:50.246Z,3.40
2018-03-18T13:18:17.832Z,3.30
2018-03-18T13:20:45.401Z,3.30
2018-03-18T13:23:13.030Z,3.40
2018-03-18T13:25:40.606Z,3.60
2018-03-18T13:28:08.212Z,3.60
2018-03-18T13:30:35.784Z,3.40
2018-03-18T13:33:03.379Z,3.50
2018-03-18T13:35:31.869Z,3.60
2018-03-18T13:37:59.465Z,3.50
2018-03-18T13:40:27.050Z,3.50
2018-03-18T13:42:54.663Z,3.60
2018-03-18T13:45:22.230Z,3.60
2018-03-18T13:47:50.619Z,3.70
2018-03-18T13:50:18.186Z,3.60
2018-03-18T13:52:45.772Z,3.70
2018-03-18T13:55:13.340Z,3.60
2018-03-18T13:57:40.948Z,3.50
2018-03-18T14:00:09.295Z,3.50
2018-03-18T14:02:36.918Z,3.50
2018-03-18T14:05:04.484Z,3.40
2018-03-18T14:07:32.079Z,3.30
2018-03-18T14:09:59.654Z,3.40
2018-03-18T14:12:28.005Z,3.40
2018-03-18T14:14:55.581Z,3.40
2018-03-18T14:17:23.194Z,3.60
2018-03-18T14:19:50.757Z,3.60
2018-03-18T14:22:47.854Z,3.50
2018-03-18T14:25:16.194Z,3.60
2018-03-18T14:27:43.788Z,3.60
2018-03-18T14:30:11.358Z,3.40
2018-03-18T14:32:38.945Z,3.20
2018-03-18T14:35:06.515Z,3.30
2018-03-18T14:37:34.085Z,3.20
2018-03-18T14:40:01.668Z,3.20
2018-03-18T14:42:29.808Z,3.20
2018-03-18T14:44:57.405Z,3.20
2018-03-18T14:47:25.759Z,3.10
2018-03-18T14:49:53.345Z,3.10
2018-03-18T14:52:20.961Z,3.10
2018-03-18T14:54:48.711Z,3.10
2018-03-18T14:57:16.281Z,3.00
2018-03-18T14:59:43.874Z,3.00
2018-03-18T15:02:11.445Z,2.90
2018-03-18T15:04:39.035Z,2.90
2018-03-18T15:07:06.608Z,3.10
2018-03-18T15:09:34.202Z,3.10
2018-03-18T15:12:01.834Z,3.20
2018-03-18T15:14:29.434Z,3.20
2018-03-18T15:16:57.010Z,3.10
2018-03-18T15:19:24.601Z,3.00
2018-03-18T15:21:52.165Z,3.00
2018-03-18T15:24:19.757Z,3.00
2018-03-18T15:26:47.327Z,2.90
2018-03-18T15:29:14.922Z,2.70
2018-03-18T15:31:42.488Z,2.70
2018-03-18T15:34:10.068Z,2.70
2018-03-18T15:36:37.661Z,2.90
2018-03-18T15:39:05.246Z,2.90
2018-03-18T15:41:33.602Z,2.90
2018-03-18T15:44:01.187Z,2.90
2018-03-18T15:46:28.785Z,2.80
2018-03-18T15:48:56.348Z,3.00
2018-03-18T15:51:23.932Z,2.90
2018-03-18T15:53:51.508Z,2.80
2018-03-18T15:56:19.111Z,2.80
2018-03-18T15:58:46.681Z,2.70
2018-03-18T16:01:14.273Z,2.70
2018-03-18T16:03:41.852Z,2.70
2018-03-18T16:06:10.220Z,2.70
2018-03-18T16:08:37.794Z,2.70
2018-03-18T16:11:05.520Z,2.60
2018-03-18T16:13:33.085Z,2.80
2018-03-18T16:16:00.682Z,2.70
2018-03-18T16:18:29.022Z,2.70
2018-03-18T16:20:57.082Z,2.60
2018-03-18T16:23:24.663Z,2.60
2018-03-18T16:25:52.253Z,2.60
2018-03-18T16:28:19.828Z,2.60
2018-03-18T16:30:59.160Z,2.50
2018-03-18T16:33:26.731Z,2.60
2018-03-18T16:35:54.327Z,2.60
2018-03-18T16:38:21.950Z,2.60
2018-03-18T16:40:50.285Z,2.50
2018-03-18T16:43:18.614Z,2.50
2018-03-18T16:45:46.187Z,2.50
2018-03-18T16:48:13.834Z,2.50
2018-03-18T16:50:41.401Z,2.40
2018-03-18T16:53:08.996Z,2.40
2018-03-18T16:55:36.571Z,2.10
2018-03-18T16:58:04.922Z,2.00
2018-03-18T17:00:33.280Z,2.20
2018-03-18T17:03:00.880Z,2.20
2018-03-18T17:05:28.445Z,1.90
2018-03-18T17:07:56.038Z,1.70
2018-03-18T17:10:23.600Z,1.70
2018-03-18T17:12:51.194Z,1.80
2018-03-18T17:15:18.770Z,1.90
2018-03-18T17:17:46.358Z,1.90
2018-03-18T17:20:13.931Z,1.80
2018-03-18T17:22:41.531Z,1.70
2018-03-18T17:25:09.107Z,1.40
2018-03-18T17:27:37.466Z,1.60
2018-03-18T17:30:05.024Z,1.50
2018-03-18T17:32:32.638Z,1.50
2018-03-18T17:35:00.202Z,1.60
2018-03-18T17:37:27.808Z,1.60
2018-03-18T17:39:55.375Z,1.60
2018-03-18T17:42:22.969Z,1.60
2018-03-18T17:45:02.348Z,1.50
2018-03-18T17:47:41.651Z,1.50
2018-03-18T17:50:20.961Z,1.40
2018-03-18T17:53:00.297Z,1.50
2018-03-18T17:55:31.026Z,1.40
2018-03-18T17:57:58.620Z,1.20
2018-03-18T18:00:26.182Z,1.20
2018-03-18T18:02:53.775Z,1.20
2018-03-18T18:05:21.351Z,1.20
2018-03-18T18:07:48.952Z,1.30
2018-03-18T18:10:16.526Z,1.20
2018-03-18T18:12:44.130Z,1.20
2018-03-18T18:15:11.701Z,1.20
2018-03-18T18:17:39.296Z,1.20
2018-03-18T18:20:06.868Z,1.30
2018-03-18T18:22:34.457Z,1.20
2018-03-18T18:25:02.053Z,1.10
2018-03-18T18:27:29.623Z,1.10
2018-03-18T18:29:57.229Z,1.20
2018-03-18T18:32:24.797Z,1.10
2018-03-18T18:34:52.389Z,1.10
2018-03-18T18:37:20.845Z,1.10
2018-03-18T18:39:48.453Z,1.20
2018-03-18T18:42:16.032Z,1.30
2018-03-18T18:44:44.680Z,1.20
2018-03-18T18:47:12.246Z,1.20
2018-03-18T18:49:39.842Z,1.30
2018-03-18T18:52:07.433Z,1.10
2018-03-18T18:54:35.037Z,1.10
2018-03-18T18:57:02.606Z,1.00
2018-03-18T18:59:30.197Z,1.00
2018-03-18T19:01:57.791Z,1.10
2018-03-18T19:04:26.624Z,1.00
2018-03-18T19:06:54.211Z,1.00
2018-03-18T19:09:22.570Z,1.00
2018-03-18T19:11:50.186Z,1.00
2018-03-18T19:14:17.776Z,1.10
2018-03-18T19:16:45.400Z,1.00
2018-03-18T19:19:13.429Z,1.10
2018-03-18T19:21:41.152Z,1.00
2018-03-18T19:24:08.725Z,1.00
2018-03-18T19:26:36.326Z,1.10
2018-03-18T19:29:06.594Z,1.10
2018-03-18T19:31:34.890Z,0.80
2018-03-18T19:34:03.592Z,0.90
2018-03-18T19:36:31.802Z,0.80
2018-03-18T19:38:59.383Z,0.90
2018-03-18T19:41:26.973Z,1.00
2018-03-18T19:43:54.704Z,0.90
2018-03-18T19:46:22.334Z,1.00
2018-03-18T19:48:50.793Z,1.00
2018-03-18T19:51:19.174Z,1.00
2018-03-18T19:53:46.794Z,1.00
2018-03-18T19:56:14.538Z,1.00
2018-03-18T19:58:42.133Z,1.00
2018-03-18T20:01:09.747Z,0.90
2018-03-18T20:03:37.401Z,0.80
2018-03-18T20:06:05.002Z,0.80
2018-03-18T20:08:32.668Z,0.90
2018-03-18T20:11:00.321Z,1.10
2018-03-18T20:13:27.889Z,1.20
2018-03-18T20:15:56.391Z,1.00
2018-03-18T20:18:23.997Z,1.00
2018-03-18T20:20:52.549Z,1.00
2018-03-18T20:23:20.886Z,1.10
2018-03-18T20:25:48.582Z,1.10
2018-03-18T20:28:16.352Z,1.20
2018-03-18T20:30:44.095Z,0.80
2018-03-18T20:33:11.744Z,0.90
2018-03-18T20:35:40.269Z,0.90
2018-03-18T20:38:07.897Z,0.90
2018-03-18T20:40:35.549Z,1.00
2018-03-18T20:43:03.843Z,0.90
2018-03-18T20:45:31.411Z,0.90
2018-03-18T20:47:59.827Z,0.90
2018-03-18T20:50:27.389Z,0.90
2018-03-18T20:52:54.998Z,0.90
2018-03-18T20:55:23.346Z,0.90
2018-03-18T20:57:51.005Z,0.90
2018-03-18T21:00:19.445Z,0.90
2018-03-18T21:02:47.041Z,0.80
2018-03-18T21:05:14.672Z,0.90
2018-03-18T21:07:42.293Z,0.90
2018-03-18T21:10:10.647Z,1.00
2018-03-18T21:12:38.251Z,0.90
2018-03-18T21:15:06.587Z,0.90
2018-03-18T21:17:34.181Z,0.90
2018-03-18T21:20:02.754Z,0.90
2018-03-18T21:22:30.946Z,0.90
2018-03-18T21:24:58.541Z,0.80
2018-03-18T21:27:26.174Z,0.70
2018-03-18T21:29:53.997Z,0.70
2018-03-18T21:32:21.641Z,0.80
2018-03-18T21:34:49.220Z,0.90
2018-03-18T21:37:16.807Z,0.90
2018-03-18T21:39:44.373Z,0.80
2018-03-18T21:42:12.090Z,0.70
2018-03-18T21:44:39.674Z,0.70
2018-03-18T21:47:08.009Z,1.00
2018-03-18T21:49:35.641Z,1.00
2018-03-18T21:52:03.393Z,0.80
2018-03-18T21:54:31.184Z,0.90
2018-03-18T21:56:58.749Z,0.90
2018-03-18T21:59:26.376Z,0.70
2018-03-18T22:01:53.961Z,0.60
2018-03-18T22:04:21.561Z,0.70
2018-03-18T22:06:49.142Z,0.80
2018-03-18T22:09:17.500Z,0.70
2018-03-18T22:11:45.069Z,0.70
2018-03-18T22:14:13.428Z,0.80
2018-03-18T22:16:40.997Z,0.80
2018-03-18T22:19:08.592Z,0.90
2018-03-18T22:21:36.169Z,0.70
2018-03-18T22:24:03.777Z,0.80
2018-03-18T22:26:31.345Z,0.70
2018-03-18T22:28:58.967Z,0.80
2018-03-18T22:31:26.517Z,0.70
2018-03-18T22:33:54.118Z,0.60
2018-03-18T22:36:21.698Z,0.70
2018-03-18T22:38:49.311Z,0.70
2018-03-18T22:41:16.886Z,0.70
2018-03-18T22:43:44.478Z,0.80
2018-03-18T22:46:12.049Z,0.70
2018-03-18T22:48:39.621Z,0.70
2018-03-18T22:51:07.214Z,0.90
2018-03-18T22:53:34.780Z,1.00
2018-03-18T22:56:02.374Z,1.00
2018-03-18T22:58:29.944Z,0.90
2018-03-18T23:00:57.536Z,0.90
2018-03-18T23:03:25.120Z,0.90
2018-03-18T23:05:52.716Z,0.90
2018-03-18T23:08:20.285Z,0.90
2018-03-18T23:10:47.877Z,1.00
2018-03-18T23:13:15.451Z,1.10
2018-03-18T23:15:43.077Z,1.10
2018-03-18T23:18:10.641Z,1.20
2018-03-18T23:20:38.231Z,1.10
2018-03-18T23:23:05.820Z,1.00
2018-03-18T23:25:34.186Z,1.10
2018-03-18T23:28:02.526Z,1.20
2018-03-18T23:30:30.122Z,1.20
2018-03-18T23:32:57.697Z,1.00
2018-03-18T23:35:26.106Z,1.00
2018-03-18T23:37:53.674Z,0.90
2018-03-18T23:40:21.281Z,1.10
2018-03-18T23:42:48.849Z,1.00
2018-03-18T23:45:17.221Z,1.00
2018-03-18T23:47:45.566Z,1.00
2018-03-18T23:50:13.128Z,1.00
2018-03-18T23:52:40.724Z,0.90
2018-03-18T23:55:08.314Z,1.00
2018-03-18T23:57:35.909Z,0.90
